Latest Weather Observations for Dartmoor

IDV60801

Issued at 2:42 pm EDT Tuesday 15 October 2019 (issued every 10 minutes, with the page automatically refreshed every 10 minutes)

About weather observations | Map of weather stations | Latest weather observations for VIC | Other Formats
Station Details ID: 090194 Name: DARTMOOR Lat: -37.92 Lon: 141.26 Height: 51.0 m
Data from the previous 72 hours. | See also: Recent months at Dartmoor
Date/Time
EDT
Temp
°C
App
Temp
°C
Dew
Point
°C
Rel
Hum
%
Delta-T
°C
Wind Press
QNH
hPa
Press
MSL
hPa
Rain since
9am
mm
Dir  Spd
km/h
Gust
km/h
Spd
kts
Gust
kts
15/02:30pm 14.8 15.1 14.5 98 0.2 W 6 9 3 5 1014.3 1014.3 2.8
15/02:00pm 13.8 12.1 13.5 98 0.2 SSW 15 20 8 11 1014.4 1014.4 2.6
15/01:30pm 13.9 12.1 13.4 97 0.3 SW 15 24 8 13 1014.6 1014.6 1.4
15/01:00pm 16.8 16.2 13.5 81 1.9 WNW 9 19 5 10 1014.5 1014.5 0.2
15/12:30pm 15.6 14.5 13.1 85 1.4 WNW 11 17 6 9 1014.8 1014.8 0.2
15/12:00pm 14.7 13.8 13.6 93 0.6 WNW 11 17 6 9 1015.0 1015.0 0.2
15/11:30am 14.0 13.1 13.7 98 0.2 NW 11 19 6 10 1015.2 1015.2 0.2
15/11:00am 13.6 13.3 13.3 98 0.2 NNW 7 9 4 5 1015.3 1015.3 0.2
15/10:30am 12.8 12.3 12.5 98 0.2 NW 7 11 4 6 1015.6 1015.6 0.2
15/10:00am 12.4 11.9 12.1 98 0.2 NW 6 11 3 6 1015.5 1015.5 0.0
15/09:30am 11.3 10.5 11.1 99 0.1 NNW 6 7 3 4 1015.6 1015.6 0.0
15/09:00am 9.9 9.1 9.8 99 0.1 N 4 6 2 3 1015.4 1015.4 0.0
15/08:30am 8.7 7.6 8.4 98 0.1 NNW 4 4 2 2 1015.5 1015.5 0.0
15/08:00am 7.7 6.7 7.4 98 0.1 NNE 2 2 1 1 1015.2 1015.2 0.0
15/07:30am 6.8 5.2 6.5 98 0.1 ENE 4 4 2 2 1015.0 1015.0 0.0
15/07:00am 6.2 4.5 5.9 98 0.1 ENE 4 4 2 2 1014.9 1014.9 0.0
15/06:30am 5.7 4.7 5.4 98 0.1 CALM 0 0 0 0 1014.9 1014.9 0.0
15/06:00am 4.8 3.6 4.5 98 0.1 CALM 0 0 0 0 1014.8 1014.8 0.0
15/05:30am 4.5 3.2 4.2 98 0.1 CALM 0 0 0 0 1014.9 1014.9 0.0
15/05:00am 4.6 3.3 4.3 98 0.1 CALM 0 0 0 0 1014.7 1014.7 0.0
15/04:30am 4.9 3.7 4.6 98 0.1 CALM 0 0 0 0 1014.8 1014.8 0.0
15/04:00am 5.5 4.4 5.2 98 0.1 CALM 0 0 0 0 1015.0 1015.0 0.0
15/03:30am 5.7 4.7 5.4 98 0.1 CALM 0 0 0 0 1015.3 1015.3 0.0
15/03:00am 6.0 5.0 5.7 98 0.1 CALM 0 0 0 0 1015.4 1015.4 0.0
15/02:30am 6.5 5.6 6.2 98 0.1 CALM 0 0 0 0 1015.7 1015.7 0.0
15/02:00am 6.8 6.0 6.5 98 0.1 CALM 0 0 0 0 1015.9 1015.9 0.0
15/01:30am 7.0 6.2 6.7 98 0.1 CALM 0 0 0 0 1016.4 1016.4 0.0
15/01:00am 7.7 7.1 7.4 98 0.1 CALM 0 0 0 0 1016.4 1016.4 0.0
15/12:30am 7.5 6.9 7.2 98 0.1 CALM 0 0 0 0 1016.5 1016.5 0.0
15/12:00am 7.8 7.2 7.5 98 0.1 CALM 0 0 0 0 1016.5 1016.5 0.0
 
Date/Time
EDT
Temp
°C
App
Temp
°C
Dew
Point
°C
Rel
Hum
%
Delta-T
°C
Wind Press
QNH
hPa
Press
MSL
hPa
Rain since
9am
mm
Dir  Spd
km/h
Gust
km/h
Spd
kts
Gust
kts
14/11:30pm 8.1 6.8 7.7 97 0.2 W 4 6 2 3 1016.6 1016.6 0.0
14/11:00pm 8.9 7.4 8.5 97 0.2 W 6 6 3 3 1016.7 1016.7 0.0
14/10:30pm 9.7 8.8 9.1 96 0.3 WSW 4 4 2 2 1016.6 1016.6 0.0
14/10:00pm 10.0 9.0 8.8 92 0.6 SW 4 6 2 3 1016.5 1016.5 0.0
14/09:30pm 10.6 9.5 8.4 86 1.1 SW 4 6 2 3 1016.4 1016.4 0.0
14/09:00pm 10.9 9.7 8.0 82 1.4 WSW 4 6 2 3 1016.2 1016.2 0.0
14/08:30pm 11.9 10.6 7.8 76 2.0 WSW 4 7 2 4 1015.7 1015.7 0.0
14/08:00pm 12.4 10.2 7.9 74 2.2 SW 9 15 5 8 1015.4 1015.4 0.0
14/07:30pm 13.2 11.2 8.5 73 2.4 SW 9 17 5 9 1015.3 1015.3 0.0
14/07:00pm 13.5 11.0 8.4 71 2.5 SW 11 17 6 9 1015.2 1015.2 0.0
14/06:30pm 13.8 11.0 8.4 70 2.7 SW 13 20 7 11 1015.0 1015.0 0.0
14/06:00pm 13.8 10.2 8.4 70 2.7 SW 17 26 9 14 1014.7 1014.7 0.0
14/05:30pm 15.4 11.9 8.6 64 3.5 SW 17 26 9 14 1014.2 1014.2 0.0
14/05:00pm 15.8 12.0 9.2 65 3.4 SSW 19 22 10 12 1014.1 1014.1 0.0
14/04:30pm 16.2 13.3 9.8 66 3.4 SSW 15 24 8 13 1014.0 1014.0 0.0
14/04:00pm 16.0 12.5 8.7 62 3.7 SW 17 26 9 14 1013.9 1013.9 0.0
14/03:30pm 15.7 12.3 9.1 65 3.4 SSW 17 24 9 13 1013.7 1013.7 0.0
14/03:00pm 16.5 14.4 11.2 71 2.9 SW 13 19 7 10 1013.7 1013.7 0.0
14/02:30pm 15.7 12.8 11.1 74 2.5 SSW 17 24 9 13 1013.9 1013.9 0.0
14/02:00pm 17.1 14.5 12.0 72 2.8 SW 17 28 9 15 1014.0 1014.0 0.0
14/01:30pm 16.9 14.3 12.0 73 2.7 SW 17 28 9 15 1013.8 1013.8 0.0
14/01:00pm 16.9 14.5 12.6 76 2.4 SW 17 26 9 14 1013.8 1013.8 0.0
14/12:30pm 15.8 14.6 12.9 83 1.6 SW 11 20 6 11 1013.9 1013.9 0.0
14/12:00pm 13.9 13.1 12.8 93 0.6 WSW 9 17 5 9 1014.0 1014.0 0.0
14/11:30am 15.1 14.8 13.3 89 1.0 WNW 7 11 4 6 1013.9 1013.9 0.0
14/11:00am 15.0 14.4 13.4 90 0.9 WNW 9 15 5 8 1013.9 1013.9 0.0
14/10:30am 14.7 13.8 13.6 93 0.6 NNW 11 17 6 9 1013.7 1013.7 0.0
14/10:00am 14.8 13.9 13.7 93 0.6 NW 11 15 6 8 1013.3 1013.3 0.0
14/09:30am 14.8 14.3 13.7 93 0.6 NW 9 19 5 10 1013.2 1013.2 0.0
14/09:00am 14.3 12.9 13.3 94 0.6 NNW 13 19 7 10 1013.0 1013.0 0.2
14/08:30am 13.7 12.7 13.4 98 0.2 NNW 11 17 6 9 1012.8 1012.8 0.2
14/08:00am 12.8 11.5 12.5 98 0.2 N 11 17 6 9 1012.7 1012.7 0.2
14/07:30am 12.5 11.1 12.2 98 0.2 N 11 17 6 9 1012.7 1012.7 0.2
14/07:00am 12.4 11.3 12.1 98 0.2 N 9 13 5 7 1012.3 1012.3 0.2
14/06:30am 12.6 11.2 12.3 98 0.2 N 11 15 6 8 1012.0 1012.0 0.2
14/06:00am 12.9 11.6 12.6 98 0.2 N 11 17 6 9 1011.6 1011.6 0.2
14/05:30am 13.1 12.6 12.8 98 0.2 N 7 11 4 6 1011.4 1011.4 0.2
14/05:00am 13.4 11.9 13.1 98 0.2 N 13 17 7 9 1011.2 1011.2 0.2
14/04:30am 14.1 13.2 13.8 98 0.2 NNW 11 15 6 8 1011.2 1011.2 0.2
14/04:00am 14.3 13.5 14.0 98 0.2 N 11 17 6 9 1011.3 1011.3 0.2
14/03:30am 14.4 13.6 14.1 98 0.2 N 11 19 6 10 1011.4 1011.4 0.2
14/03:00am 14.5 13.4 14.2 98 0.2 N 13 22 7 12 1011.4 1011.4 0.2
14/02:30am 14.2 13.7 13.9 98 0.2 N 9 15 5 8 1011.6 1011.6 0.2
14/02:00am 14.2 13.4 13.9 98 0.2 N 11 17 6 9 1011.8 1011.8 0.2
14/01:30am 14.1 13.6 13.8 98 0.2 N 9 15 5 8 1012.1 1012.1 0.2
14/01:00am 14.7 13.6 14.4 98 0.2 N 13 22 7 12 1012.3 1012.3 0.2
14/12:30am 14.6 14.3 14.3 98 0.2 N 9 15 5 8 1012.1 1012.1 0.2
14/12:00am 14.7 14.4 14.4 98 0.2 N 9 13 5 7 1012.0 1012.0 0.2
 
Date/Time
EDT
Temp
°C
App
Temp
°C
Dew
Point
°C
Rel
Hum
%
Delta-T
°C
Wind Press
QNH
hPa
Press
MSL
hPa
Rain since
9am
mm
Dir  Spd
km/h
Gust
km/h
Spd
kts
Gust
kts
13/11:30pm 15.4 15.0 14.1 92 0.7 NNW 9 13 5 7 1011.9 1011.9 0.0
13/11:00pm 15.4 14.8 13.6 89 1.0 NNW 9 13 5 7 1012.0 1012.0 0.0
13/10:30pm 16.1 15.0 13.2 83 1.6 NNW 11 15 6 8 1012.0 1012.0 0.0
13/10:00pm 16.2 14.6 12.9 81 1.8 NNW 13 17 7 9 1012.1 1012.1 0.0
13/09:30pm 16.3 14.7 12.7 79 2.0 NNW 13 19 7 10 1012.1 1012.1 0.0
13/09:00pm 16.7 15.4 12.5 76 2.3 WNW 11 17 6 9 1011.7 1011.7 0.0
13/08:30pm 17.1 14.8 11.8 71 2.9 WNW 15 30 8 16 1011.3 1011.3 0.0
13/08:00pm 17.5 15.1 8.6 56 4.6 NW 11 17 6 9 1010.8 1010.8 0.0
13/07:30pm 19.0 14.5 6.8 45 6.1 WNW 20 32 11 17 1010.4 1010.4 0.0
13/07:00pm 22.1 18.4 4.7 32 8.6 N 13 20 7 11 1009.4 1009.4 0.0
13/06:30pm 22.8 18.7 4.3 30 9.1 N 15 26 8 14 1009.3 1009.3 0.0
13/06:00pm 23.4 18.6 4.9 30 9.3 NNW 19 33 10 18 1009.1 1009.1 0.0
13/05:30pm 24.1 19.9 5.5 30 9.4 NNE 17 30 9 16 1009.0 1009.0 0.0
13/05:00pm 23.8 18.9 5.2 30 9.4 N 20 37 11 20 1009.0 1009.0 0.0
13/04:30pm 23.5 20.2 6.3 33 8.8 NNE 13 26 7 14 1009.5 1009.5 0.0
13/04:00pm 22.3 18.6 6.1 35 8.2 NNE 15 20 8 11 1010.0 1010.0 0.0
13/03:30pm 22.3 18.2 6.1 35 8.2 NNE 17 26 9 14 1010.1 1010.1 0.0
13/03:00pm 22.8 16.9 5.7 33 8.6 NNE 26 39 14 21 1010.5 1010.5 0.0
13/02:30pm 22.9 19.2 7.8 38 7.9 NNE 17 35 9 19 1010.9 1010.9 0.0
13/02:00pm 21.8 18.6 8.3 42 7.1 NNE 15 33 8 18 1011.6 1011.6 0.0
13/01:30pm 22.7 18.5 8.4 40 7.6 NNE 20 33 11 18 1011.9 1011.9 0.0
13/01:00pm 20.9 16.6 6.8 40 7.2 NNE 19 30 10 16 1012.5 1012.5 0.0
13/12:30pm 22.0 17.2 7.4 39 7.6 NNE 22 35 12 19 1012.7 1012.7 0.0
13/12:00pm 21.3 15.7 7.2 40 7.3 NNE 26 35 14 19 1012.7 1012.7 0.0
13/11:30am 20.2 14.8 6.2 40 7.0 NNE 24 44 13 24 1013.0 1013.0 0.0
13/11:00am 20.0 16.2 9.0 49 5.8 NNE 19 28 10 15 1013.3 1013.3 0.0
13/10:30am 18.5 13.8 7.9 50 5.4 NNE 22 39 12 21 1013.8 1013.8 0.0
13/10:00am 18.6 15.1 8.8 53 5.1 NNE 17 26 9 14 1013.9 1013.9 0.0
13/09:30am 16.9 12.9 8.1 56 4.5 NNE 19 28 10 15 1014.0 1014.0 0.0
13/09:00am 15.4 11.6 7.4 59 4.0 NNE 17 28 9 15 1013.8 1013.8 0.0
13/08:30am 14.8 11.3 7.1 60 3.8 NNE 15 20 8 11 1014.2 1014.2 0.0
13/08:00am 14.3 11.5 6.9 61 3.6 NNE 11 17 6 9 1014.3 1014.3 0.0
13/07:30am 13.8 10.6 6.9 63 3.4 NNE 13 19 7 10 1014.0 1014.0 0.0
13/07:00am 12.9 9.8 7.4 69 2.7 NE 13 19 7 10 1013.9 1013.9 0.0
13/06:30am 11.4 9.1 7.3 76 2.0 NE 9 15 5 8 1014.0 1014.0 0.0
13/06:00am 10.1 8.2 7.7 85 1.2 ENE 7 9 4 5 1013.8 1013.8 0.0
13/05:30am 10.3 9.0 7.7 84 1.3 ENE 4 4 2 2 1014.0 1014.0 0.0
13/05:00am 10.4 8.6 8.0 85 1.2 ENE 7 9 4 5 1013.8 1013.8 0.0
13/04:30am 10.7 8.6 8.3 85 1.2 ENE 9 11 5 6 1013.7 1013.7 0.0
13/04:00am 11.0 8.6 8.8 86 1.1 ENE 11 13 6 7 1014.0 1014.0 0.0
13/03:30am 10.4 8.4 8.7 89 0.8 ENE 9 11 5 6 1014.2 1014.2 0.0
13/03:00am 10.3 8.4 8.9 91 0.7 ENE 9 11 5 6 1014.6 1014.6 0.0
13/02:30am 10.8 9.2 8.9 88 0.9 ENE 7 9 4 5 1015.0 1015.0 0.0
13/02:00am 11.5 10.0 9.1 85 1.2 ENE 7 11 4 6 1015.3 1015.3 0.0
13/01:30am 11.8 9.9 9.2 84 1.3 E 9 13 5 7 1015.5 1015.5 0.0
13/01:00am 12.3 10.5 9.5 83 1.4 ENE 9 15 5 8 1015.9 1015.9 0.0
13/12:30am 12.8 10.7 9.6 81 1.6 ENE 11 17 6 9 1016.4 1016.4 0.0
13/12:00am 12.9 10.8 9.9 82 1.5 E 11 17 6 9 1016.5 1016.5 0.0
 
Date/Time
EDT
Temp
°C
App
Temp
°C
Dew
Point
°C
Rel
Hum
%
Delta-T
°C
Wind Press
QNH
hPa
Press
MSL
hPa
Rain since
9am
mm
Dir  Spd
km/h
Gust
km/h
Spd
kts
Gust
kts
12/11:30pm 13.5 11.5 10.1 80 1.8 ENE 11 17 6 9 1016.5 1016.5 0.0
12/11:00pm 14.1 11.8 10.3 78 2.0 E 13 20 7 11 1017.0 1017.0 0.0
12/10:30pm 14.4 12.1 10.6 78 2.0 E 13 20 7 11 1017.0 1017.0 0.0
12/10:00pm 13.6 12.0 11.7 88 1.0 E 11 19 6 10 1016.9 1016.9 0.0
12/09:30pm 13.0 12.0 12.2 95 0.4 ESE 9 13 5 7 1016.6 1016.6 0.0
12/09:00pm 13.5 11.7 12.2 92 0.7 SE 13 17 7 9 1016.2 1016.2 0.0
12/08:30pm 14.0 13.3 11.9 87 1.1 SE 7 9 4 5 1015.7 1015.7 0.0
12/08:00pm 15.3 12.7 11.9 80 1.8 ESE 17 24 9 13 1014.0 1014.0 0.0
12/07:30pm 16.4 14.6 10.9 70 2.9 ESE 11 19 6 10 1014.4 1014.4 0.0
12/07:00pm 18.2 17.5 10.1 59 4.3 ENE 4 7 2 4 1014.2 1014.2 0.0
12/06:30pm 18.9 17.0 9.1 53 5.1 ENE 9 15 5 8 1014.3 1014.3 0.0
12/06:00pm 19.2 17.7 9.1 52 5.3 ENE 7 9 4 5 1014.3 1014.3 0.0
12/05:30pm 19.7 17.4 9.0 50 5.6 ENE 11 19 6 10 1014.2 1014.2 0.0
12/05:00pm 20.5 18.3 10.9 54 5.3 ENE 13 20 7 11 1014.0 1014.0 0.0
12/04:30pm 20.0 17.9 9.9 52 5.4 ENE 11 19 6 10 1014.1 1014.1 0.0
12/04:00pm 20.4 17.7 10.2 52 5.5 ENE 15 20 8 11 1014.3 1014.3 0.0
12/03:30pm 20.2 17.9 10.3 53 5.4 NE 13 26 7 14 1014.7 1014.7 0.0
12/03:00pm 20.5 18.7 10.9 54 5.3 ENE 11 17 6 9 1015.1 1015.1 0.0

Other formats

Comma delimited format used in spreadsheet applications
http://www.bom.gov.au/fwo/IDV60801/IDV60801.95822.axf

JavaScript Object Notation format (JSON) in row-major order
http://www.bom.gov.au/fwo/IDV60801/IDV60801.95822.json

Data quality

Most of these data are generated automatically and are frequently updated. Quality checks on data are not normally performed. It is possible for incorrect values to appear. Refer to information at About Latest Weather Observations and please check the disclaimer before using these data.